createdAt,value
2023-01-25T00:01:51.548Z,63.73
2023-01-25T00:06:54.184Z,63.73
2023-01-25T00:11:58.178Z,66.77
2023-01-25T00:17:00.463Z,62.77
2023-01-25T00:22:02.764Z,59.93
2023-01-25T00:27:05.148Z,62.37
2023-01-25T00:32:27.563Z,64.17
2023-01-25T00:37:37.429Z,63.30
2023-01-25T00:42:40.086Z,58.50
2023-01-25T00:47:42.489Z,121.27
2023-01-25T00:52:45.466Z,70.53
2023-01-25T00:57:47.830Z,65.00
2023-01-25T01:02:50.622Z,64.13
2023-01-25T01:07:55.958Z,60.33
2023-01-25T01:12:58.419Z,59.93
2023-01-25T01:18:00.717Z,62.60
2023-01-25T01:23:03.290Z,73.33
2023-01-25T01:28:05.571Z,68.07
2023-01-25T01:33:08.788Z,61.80
2023-01-25T01:38:11.127Z,62.80
2023-01-25T01:43:19.353Z,84.83
2023-01-25T01:48:40.203Z,62.03
2023-01-25T01:53:57.939Z,59.53
2023-01-25T01:59:01.255Z,60.97
2023-01-25T02:04:07.097Z,62.47
2023-01-25T02:09:11.425Z,63.87
2023-01-25T02:14:15.492Z,66.07
2023-01-25T02:19:38.346Z,63.73
2023-01-25T02:24:50.798Z,72.20
2023-01-25T02:29:53.171Z,65.50
2023-01-25T02:34:55.610Z,80.93
2023-01-25T02:39:57.982Z,58.33
2023-01-25T02:45:03.274Z,53.43
2023-01-25T02:50:06.154Z,54.30
2023-01-25T02:55:09.517Z,55.27
2023-01-25T03:00:14.746Z,48.40
2023-01-25T03:05:17.663Z,49.10
2023-01-25T03:10:20.162Z,51.13
2023-01-25T03:15:23.803Z,40.23
2023-01-25T03:20:26.224Z,49.83
2023-01-25T03:25:28.829Z,47.73
2023-01-25T03:30:42.108Z,44.33
2023-01-25T03:35:44.456Z,37.37
2023-01-25T03:40:47.775Z,33.17
2023-01-25T03:45:55.391Z,36.80
2023-01-25T03:51:00.206Z,33.20
2023-01-25T03:56:09.830Z,34.90
2023-01-25T04:01:13.931Z,32.70
2023-01-25T04:06:16.314Z,32.53
2023-01-25T04:11:19.697Z,33.57
2023-01-25T04:16:24.064Z,32.93
2023-01-25T04:21:49.380Z,36.10
2023-01-25T04:26:53.635Z,39.00
2023-01-25T04:31:56.431Z,32.30
2023-01-25T04:36:59.546Z,35.97
2023-01-25T04:42:06.450Z,37.63
2023-01-25T04:47:09.235Z,33.57
2023-01-25T04:52:11.639Z,35.70
2023-01-25T04:57:14.515Z,34.83
2023-01-25T05:02:23.263Z,37.67
2023-01-25T05:07:25.812Z,33.10
2023-01-25T05:12:28.206Z,40.13
2023-01-25T05:17:35.614Z,36.17
2023-01-25T05:22:37.994Z,36.17
2023-01-25T05:27:40.355Z,35.53
2023-01-25T05:33:18.703Z,39.63
2023-01-25T05:38:21.358Z,37.50
2023-01-25T05:43:24.324Z,35.13
2023-01-25T05:48:26.961Z,34.17
2023-01-25T05:53:29.666Z,37.23
2023-01-25T05:58:32.671Z,26.20
2023-01-25T06:03:35.431Z,22.40
2023-01-25T06:08:38.408Z,26.47
2023-01-25T06:13:46.358Z,21.30
2023-01-25T06:18:49.574Z,17.87
2023-01-25T06:24:20.733Z,16.07
2023-01-25T06:29:23.037Z,14.07
2023-01-25T06:34:25.399Z,17.07
2023-01-25T06:39:29.760Z,11.27
2023-01-25T06:44:32.151Z,12.73
2023-01-25T06:49:34.462Z,9.03
2023-01-25T06:54:36.725Z,8.57
2023-01-25T06:59:39.064Z,11.03
2023-01-25T07:04:41.497Z,26.40
2023-01-25T07:09:44.668Z,23.17
2023-01-25T07:14:48.580Z,12.57
2023-01-25T07:19:50.958Z,11.20
2023-01-25T07:24:53.979Z,12.40
2023-01-25T07:29:56.409Z,9.83
2023-01-25T07:35:02.820Z,10.23
2023-01-25T07:40:05.589Z,17.87
2023-01-25T07:45:09.120Z,18.37
2023-01-25T07:50:11.851Z,95.27
2023-01-25T07:55:14.241Z,22.23
2023-01-25T08:00:16.988Z,19.17
2023-01-25T08:05:19.755Z,20.63
2023-01-25T08:10:22.741Z,14.40
2023-01-25T08:15:25.061Z,22.73
2023-01-25T08:20:27.553Z,20.37
2023-01-25T08:25:29.937Z,15.27
2023-01-25T08:30:32.363Z,19.47
2023-01-25T08:35:36.842Z,11.43
2023-01-25T08:40:39.288Z,20.73
2023-01-25T08:45:41.661Z,13.37
2023-01-25T08:50:47.452Z,31.00
2023-01-25T08:55:49.833Z,29.53
2023-01-25T09:00:52.137Z,104.57
2023-01-25T09:05:54.874Z,15.73
2023-01-25T09:11:02.894Z,14.90
2023-01-25T09:16:11.219Z,20.37
2023-01-25T09:21:16.560Z,24.93
2023-01-25T09:26:19.415Z,18.30
2023-01-25T09:31:24.042Z,49.00
2023-01-25T09:36:50.059Z,20.43
2023-01-25T09:42:20.479Z,22.93
2023-01-25T09:47:49.258Z,14.20
2023-01-25T09:53:12.991Z,22.97
2023-01-25T09:58:20.194Z,18.57
2023-01-25T10:03:53.600Z,23.47
2023-01-25T10:09:27.532Z,24.53
2023-01-25T10:14:35.645Z,30.97
2023-01-25T10:19:59.888Z,33.93
2023-01-25T10:25:24.176Z,29.73
2023-01-25T10:30:28.294Z,23.37
2023-01-25T10:35:41.245Z,18.27
2023-01-25T10:40:52.600Z,36.90
2023-01-25T10:45:54.978Z,34.10
2023-01-25T10:50:57.985Z,25.83
2023-01-25T10:56:09.733Z,24.73
2023-01-25T11:01:28.924Z,29.40
2023-01-25T11:06:38.010Z,30.13
2023-01-25T11:11:41.473Z,41.23
2023-01-25T11:16:50.469Z,37.33
2023-01-25T11:21:54.908Z,22.87
2023-01-25T11:27:21.495Z,34.97
2023-01-25T11:32:25.285Z,35.17
2023-01-25T11:37:58.593Z,32.50
2023-01-25T11:43:30.269Z,41.87
2023-01-25T11:48:47.769Z,32.83
2023-01-25T11:54:00.454Z,27.20
2023-01-25T11:59:37.042Z,41.93
2023-01-25T12:05:09.689Z,18.90
2023-01-25T12:10:34.266Z,88.80
2023-01-25T12:16:02.447Z,33.33
2023-01-25T12:21:22.952Z,21.60
2023-01-25T12:26:49.064Z,29.27
2023-01-25T12:32:07.218Z,22.67
2023-01-25T12:37:21.622Z,20.70
2023-01-25T12:42:36.588Z,34.03
2023-01-25T12:47:55.399Z,31.67
2023-01-25T12:53:16.592Z,38.43
2023-01-25T12:58:36.953Z,68.27
2023-01-25T13:04:04.213Z,63.07
2023-01-25T13:09:24.992Z,48.83
2023-01-25T13:14:37.052Z,23.27
2023-01-25T13:19:42.751Z,30.40
2023-01-25T13:25:03.974Z,31.50
2023-01-25T13:30:31.199Z,42.53
2023-01-25T13:35:41.640Z,30.77
2023-01-25T13:40:44.138Z,28.77
2023-01-25T13:45:50.586Z,74.53
2023-01-25T13:50:59.407Z,60.70
2023-01-25T13:56:02.868Z,56.67
2023-01-25T14:01:13.232Z,54.27
2023-01-25T14:06:31.076Z,32.07
2023-01-25T14:11:36.633Z,58.30
2023-01-25T14:16:39.381Z,28.43
2023-01-25T14:21:41.957Z,29.13
2023-01-25T14:26:47.409Z,27.73
2023-01-25T14:31:51.756Z,35.43
2023-01-25T14:37:26.378Z,32.47
2023-01-25T14:42:28.818Z,33.90
2023-01-25T14:47:32.516Z,36.07
2023-01-25T14:52:35.390Z,34.20
2023-01-25T14:57:40.697Z,32.60
2023-01-25T15:02:55.122Z,41.55
2023-01-25T15:08:13.177Z,37.53
2023-01-25T15:13:15.721Z,50.03
2023-01-25T15:18:46.040Z,41.03
2023-01-25T15:23:49.845Z,32.77
2023-01-25T15:29:04.357Z,35.33
2023-01-25T15:34:06.805Z,37.87
2023-01-25T15:39:17.480Z,31.60
2023-01-25T15:44:20.497Z,55.00
2023-01-25T15:49:28.645Z,38.97
2023-01-25T15:54:30.942Z,41.30
2023-01-25T15:59:33.465Z,127.83
2023-01-25T16:04:37.868Z,40.53
2023-01-25T16:09:40.340Z,53.73
2023-01-25T16:14:42.802Z,59.87
2023-01-25T16:19:47.940Z,49.17
2023-01-25T16:24:50.653Z,80.70
2023-01-25T16:29:53.380Z,49.07
2023-01-25T16:34:55.694Z,45.00
2023-01-25T16:39:58.282Z,40.83
2023-01-25T16:45:00.615Z,45.23
2023-01-25T16:50:02.957Z,62.57
2023-01-25T16:55:05.604Z,47.27
2023-01-25T17:00:11.014Z,76.43
2023-01-25T17:05:13.520Z,90.90
2023-01-25T17:10:16.174Z,51.77
2023-01-25T17:15:20.482Z,79.93
2023-01-25T17:20:22.855Z,55.53
2023-01-25T17:25:25.860Z,49.20
2023-01-25T17:30:28.222Z,57.27
2023-01-25T17:35:30.550Z,52.67
2023-01-25T17:40:35.575Z,45.33
2023-01-25T17:45:40.852Z,43.63
2023-01-25T17:50:43.210Z,47.67
2023-01-25T17:55:45.537Z,50.57
2023-01-25T18:00:47.877Z,77.37
2023-01-25T18:05:50.972Z,52.40
2023-01-25T18:10:53.323Z,64.77
2023-01-25T18:15:55.975Z,88.07
2023-01-25T18:21:07.764Z,70.63
2023-01-25T18:26:18.666Z,101.30
2023-01-25T18:31:21.573Z,75.50
2023-01-25T18:36:24.044Z,109.53
2023-01-25T18:41:26.422Z,60.07
2023-01-25T18:46:28.860Z,58.17
2023-01-25T18:51:31.232Z,56.43
2023-01-25T18:56:33.536Z,60.87
2023-01-25T19:01:35.916Z,92.90
2023-01-25T19:06:38.291Z,79.90
2023-01-25T19:11:40.593Z,113.93
2023-01-25T19:16:42.924Z,111.73
2023-01-25T19:21:45.235Z,113.07
2023-01-25T19:26:48.201Z,101.90
2023-01-25T19:31:50.622Z,106.57
2023-01-25T19:36:53.895Z,96.17
2023-01-25T19:41:56.352Z,114.07
2023-01-25T19:46:58.762Z,130.83
2023-01-25T19:52:01.139Z,133.80
2023-01-25T19:57:03.423Z,106.37
2023-01-25T20:02:06.222Z,109.00
2023-01-25T20:07:08.605Z,97.17
2023-01-25T20:12:10.936Z,86.53
2023-01-25T20:17:14.170Z,313.00
2023-01-25T20:22:16.499Z,102.30
2023-01-25T20:27:19.692Z,90.73
2023-01-25T20:32:32.476Z,93.67
2023-01-25T20:37:35.593Z,101.87
2023-01-25T20:42:37.967Z,92.70
2023-01-25T20:47:40.292Z,105.07
2023-01-25T20:52:42.639Z,160.03
2023-01-25T20:57:45.146Z,221.57
2023-01-25T21:02:47.422Z,172.77
2023-01-25T21:07:49.701Z,172.67
2023-01-25T21:12:52.106Z,144.77
2023-01-25T21:17:54.537Z,144.70
2023-01-25T21:22:56.854Z,122.53
2023-01-25T21:27:59.263Z,97.20
2023-01-25T21:33:01.588Z,116.13
2023-01-25T21:38:03.994Z,93.70
2023-01-25T21:43:06.932Z,100.17
2023-01-25T21:48:09.362Z,99.97
2023-01-25T21:53:11.707Z,117.47
2023-01-25T21:58:14.389Z,114.43
2023-01-25T22:03:16.739Z,134.63
2023-01-25T22:08:20.081Z,109.57
2023-01-25T22:13:22.390Z,109.77
2023-01-25T22:18:24.722Z,105.30
2023-01-25T22:23:28.775Z,108.83
2023-01-25T22:28:34.858Z,106.03
2023-01-25T22:33:37.134Z,110.93
2023-01-25T22:38:39.540Z,123.33
2023-01-25T22:43:42.230Z,99.90
2023-01-25T22:48:45.299Z,99.30
2023-01-25T22:53:47.853Z,99.63
2023-01-25T22:58:51.127Z,90.47
2023-01-25T23:03:53.989Z,90.63
2023-01-25T23:08:59.769Z,93.50
2023-01-25T23:14:21.545Z,92.67
2023-01-25T23:19:26.367Z,96.63
2023-01-25T23:24:28.781Z,89.83
2023-01-25T23:29:31.416Z,110.73
2023-01-25T23:34:37.088Z,99.73
2023-01-25T23:39:39.422Z,95.30
2023-01-25T23:44:42.041Z,120.13
2023-01-25T23:49:44.394Z,105.43
2023-01-25T23:54:46.690Z,101.33
2023-01-25T23:59:49.158Z,92.37
